createdAt,value
2023-04-27T00:02:03.129Z,102125.78
2023-04-27T00:04:29.723Z,102119.72
2023-04-27T00:06:56.383Z,102114.09
2023-04-27T00:09:22.938Z,102120.28
2023-04-27T00:11:49.346Z,102117.88
2023-04-27T00:14:15.926Z,102118.88
2023-04-27T00:16:42.677Z,102124.47
2023-04-27T00:19:09.202Z,102117.72
2023-04-27T00:21:35.600Z,102124.06
2023-04-27T00:24:02.089Z,102117.13
2023-04-27T00:26:28.642Z,102118.13
2023-04-27T00:28:55.331Z,102120.06
2023-04-27T00:31:24.082Z,102114.03
2023-04-27T00:33:50.676Z,102112.47
2023-04-27T00:36:17.114Z,102115.13
2023-04-27T00:38:43.510Z,102118.94
2023-04-27T00:41:10.336Z,102113.88
2023-04-27T00:43:44.508Z,102120.31
2023-04-27T00:46:13.377Z,102113.44
2023-04-27T00:48:41.066Z,102116.22
2023-04-27T00:51:07.525Z,102116.47
2023-04-27T00:53:34.927Z,102110.59
2023-04-27T00:56:01.359Z,102112.53
2023-04-27T00:58:28.701Z,102115.22
2023-04-27T01:00:55.546Z,102116.06
2023-04-27T01:03:22.867Z,102115.47
2023-04-27T01:05:49.487Z,102113.94
2023-04-27T01:08:15.922Z,102121.22
2023-04-27T01:10:42.716Z,102120.53
2023-04-27T01:13:10.269Z,102111.78
2023-04-27T01:15:37.911Z,102116.28
2023-04-27T01:18:09.685Z,102118.38
2023-04-27T01:20:36.211Z,102108.81
2023-04-27T01:23:02.578Z,102122.19
2023-04-27T01:25:29.090Z,102104.72
2023-04-27T01:27:55.541Z,102111.84
2023-04-27T01:30:25.102Z,102108.50
2023-04-27T01:32:51.721Z,102101.56
2023-04-27T01:35:19.027Z,102106.22
2023-04-27T01:37:45.603Z,102093.81
2023-04-27T01:40:13.038Z,102082.38
2023-04-27T01:42:39.453Z,102086.06
2023-04-27T01:45:09.095Z,102083.63
2023-04-27T01:47:35.670Z,102085.56
2023-04-27T01:50:02.337Z,102069.84
2023-04-27T01:52:28.785Z,102076.88
2023-04-27T01:54:55.472Z,102082.34
2023-04-27T01:57:22.690Z,102085.88
2023-04-27T01:59:49.228Z,102089.63
2023-04-27T02:02:16.456Z,102077.13
2023-04-27T02:04:43.235Z,102079.09
2023-04-27T02:07:09.976Z,102080.06
2023-04-27T02:09:36.608Z,102074.84
2023-04-27T02:12:03.673Z,102065.25
2023-04-27T02:14:30.081Z,102069.75
2023-04-27T02:16:56.517Z,102068.22
2023-04-27T02:19:23.302Z,102073.56
2023-04-27T02:21:49.829Z,102081.69
2023-04-27T02:24:16.388Z,102075.66
2023-04-27T02:26:44.810Z,102071.28
2023-04-27T02:29:11.434Z,102073.38
2023-04-27T02:31:38.377Z,102069.00
2023-04-27T02:34:04.809Z,102060.97
2023-04-27T02:36:31.612Z,102064.38
2023-04-27T02:38:58.081Z,102067.31
2023-04-27T02:41:27.470Z,102063.94
2023-04-27T02:43:53.888Z,102063.34
2023-04-27T02:46:20.339Z,102058.13
2023-04-27T02:48:46.904Z,102064.44
2023-04-27T02:51:13.350Z,102065.44
2023-04-27T02:53:39.866Z,102065.56
2023-04-27T02:56:06.596Z,102065.69
2023-04-27T02:58:33.006Z,102072.00
2023-04-27T03:00:59.566Z,102072.00
2023-04-27T03:03:26.350Z,102071.28
2023-04-27T03:05:52.978Z,102073.84
2023-04-27T03:08:19.492Z,102074.69
2023-04-27T03:10:46.031Z,102069.47
2023-04-27T03:13:14.310Z,102078.34
2023-04-27T03:15:43.297Z,102085.63
2023-04-27T03:18:09.830Z,102094.63
2023-04-27T03:20:36.507Z,102083.09
2023-04-27T03:23:03.098Z,102084.19
2023-04-27T03:25:29.555Z,102085.31
2023-04-27T03:27:56.337Z,102085.41
2023-04-27T03:30:22.835Z,102080.34
2023-04-27T03:32:49.302Z,102073.31
2023-04-27T03:35:15.888Z,102074.28
2023-04-27T03:37:42.301Z,102080.47
2023-04-27T03:40:09.315Z,102070.63
2023-04-27T03:42:36.303Z,102073.31
2023-04-27T03:45:03.008Z,102071.63
2023-04-27T03:47:29.600Z,102066.28
2023-04-27T03:49:57.087Z,102068.22
2023-04-27T03:52:23.653Z,102073.56
2023-04-27T03:54:50.106Z,102067.25
2023-04-27T03:57:17.842Z,102074.28
2023-04-27T03:59:44.259Z,102079.63
2023-04-27T04:02:11.658Z,102077.94
2023-04-27T04:04:38.951Z,102088.72
2023-04-27T04:07:05.770Z,102088.88
2023-04-27T04:09:32.356Z,102081.84
2023-04-27T04:11:59.315Z,102083.78
2023-04-27T04:14:27.856Z,102088.41
2023-04-27T04:16:54.955Z,102081.50
2023-04-27T04:19:22.151Z,102087.09
2023-04-27T04:21:48.760Z,102092.56
2023-04-27T04:24:16.328Z,102097.06
2023-04-27T04:26:43.101Z,102100.81
2023-04-27T04:29:10.945Z,102099.38
2023-04-27T04:31:37.961Z,102097.94
2023-04-27T04:34:04.823Z,102096.25
2023-04-27T04:36:31.980Z,102106.09
2023-04-27T04:38:58.726Z,102107.78
2023-04-27T04:41:26.225Z,102110.44
2023-04-27T04:43:52.879Z,102108.47
2023-04-27T04:46:19.980Z,102118.19
2023-04-27T04:48:46.880Z,102115.41
2023-04-27T04:51:13.494Z,102118.66
2023-04-27T04:53:39.999Z,102116.00
2023-04-27T04:56:10.995Z,102110.41
2023-04-27T04:58:37.494Z,102110.72
2023-04-27T05:01:07.360Z,102105.97
2023-04-27T05:03:34.712Z,102105.34
2023-04-27T05:06:01.283Z,102101.88
2023-04-27T05:08:27.855Z,102104.25
2023-04-27T05:10:54.741Z,102113.16
2023-04-27T05:13:21.630Z,102109.34
2023-04-27T05:15:48.317Z,102119.44
2023-04-27T05:18:14.855Z,102112.22
2023-04-27T05:20:41.410Z,102114.97
2023-04-27T05:23:07.936Z,102117.41
2023-04-27T05:25:41.711Z,102124.34
2023-04-27T05:28:09.590Z,102126.78
2023-04-27T05:30:36.456Z,102125.69
2023-04-27T05:33:04.040Z,102128.63
2023-04-27T05:35:31.136Z,102126.94
2023-04-27T05:37:57.905Z,102127.47
2023-04-27T05:40:24.407Z,102131.56
2023-04-27T05:42:51.061Z,102127.00
2023-04-27T05:45:17.633Z,102126.72
2023-04-27T05:47:44.059Z,102122.63
2023-04-27T05:50:11.136Z,102120.63
2023-04-27T05:52:38.956Z,102122.31
2023-04-27T05:55:06.714Z,102122.75
2023-04-27T05:57:33.317Z,102123.06
2023-04-27T06:00:00.616Z,102124.78
2023-04-27T06:02:27.150Z,102118.91
2023-04-27T06:04:53.649Z,102114.41
2023-04-27T06:07:20.076Z,102124.72
2023-04-27T06:09:46.446Z,102122.19
2023-04-27T06:12:12.871Z,102125.16
2023-04-27T06:14:39.243Z,102124.44
2023-04-27T06:17:08.450Z,102118.63
2023-04-27T06:19:34.943Z,102128.06
2023-04-27T06:22:01.670Z,102129.19
2023-04-27T06:24:28.762Z,102119.38
2023-04-27T06:26:55.359Z,102116.81
2023-04-27T06:29:21.726Z,102122.16
2023-04-27T06:31:48.231Z,102124.63
2023-04-27T06:34:14.708Z,102131.00
2023-04-27T06:36:41.208Z,102129.47
2023-04-27T06:39:07.681Z,102127.53
2023-04-27T06:41:34.049Z,102131.06
2023-04-27T06:44:00.537Z,102128.38
2023-04-27T06:46:27.478Z,102127.53
2023-04-27T06:48:54.017Z,102124.44
2023-04-27T06:51:20.548Z,102125.13
2023-04-27T06:53:46.960Z,102117.81
2023-04-27T06:56:13.416Z,102113.09
2023-04-27T06:58:39.899Z,102108.84
2023-04-27T07:01:06.798Z,102122.09
2023-04-27T07:03:36.375Z,102121.38
2023-04-27T07:06:03.165Z,102120.94
2023-04-27T07:08:29.898Z,102131.53
2023-04-27T07:10:56.389Z,102128.28
2023-04-27T07:13:22.867Z,102137.75
2023-04-27T07:15:57.949Z,102133.50
2023-04-27T07:18:24.687Z,102126.34
2023-04-27T07:20:51.154Z,102129.16
2023-04-27T07:23:17.620Z,102131.34
2023-04-27T07:25:45.449Z,102131.88
2023-04-27T07:28:12.866Z,102126.34
2023-04-27T07:30:39.370Z,102135.13
2023-04-27T07:33:05.892Z,102137.34
2023-04-27T07:35:32.425Z,102133.63
2023-04-27T07:38:02.562Z,102141.00
2023-04-27T07:40:30.003Z,102135.41
2023-04-27T07:42:58.122Z,102139.63
2023-04-27T07:45:31.724Z,102137.13
2023-04-27T07:48:00.121Z,102138.50
2023-04-27T07:50:28.458Z,102128.22
2023-04-27T07:52:54.992Z,102135.03
2023-04-27T07:55:23.475Z,102135.09
2023-04-27T07:57:50.812Z,102137.22
2023-04-27T08:00:17.836Z,102128.56
2023-04-27T08:02:44.438Z,102117.78
2023-04-27T08:05:11.515Z,102122.53
2023-04-27T08:07:42.806Z,102127.28
2023-04-27T08:10:11.169Z,102136.97
2023-04-27T08:12:37.588Z,102136.00
2023-04-27T08:15:05.716Z,102131.81
2023-04-27T08:17:32.131Z,102137.72
2023-04-27T08:19:58.670Z,102138.44
2023-04-27T08:22:25.205Z,102139.09
2023-04-27T08:24:51.692Z,102136.63
2023-04-27T08:27:18.097Z,102134.28
2023-04-27T08:29:48.633Z,102134.53
2023-04-27T08:32:16.081Z,102130.34
2023-04-27T08:34:44.855Z,102133.25
2023-04-27T08:37:11.296Z,102128.41
2023-04-27T08:39:37.719Z,102126.03
2023-04-27T08:42:14.144Z,102114.25
2023-04-27T08:44:41.149Z,102131.75
2023-04-27T08:47:08.962Z,102131.25
2023-04-27T08:49:38.277Z,102131.78
2023-04-27T08:52:11.544Z,102129.78
2023-04-27T08:54:38.053Z,102133.88
2023-04-27T08:57:11.783Z,102139.28
2023-04-27T08:59:41.374Z,102135.09
2023-04-27T09:02:20.117Z,102129.25
2023-04-27T09:04:46.893Z,102126.22
2023-04-27T09:07:18.218Z,102126.41
2023-04-27T09:09:45.300Z,102130.06
2023-04-27T09:12:21.698Z,102118.97
2023-04-27T09:14:57.905Z,102111.91
2023-04-27T09:17:28.918Z,102112.75
2023-04-27T09:20:13.435Z,102118.84
2023-04-27T09:22:47.902Z,102116.47
2023-04-27T09:25:24.585Z,102118.16
2023-04-27T09:27:51.465Z,102111.94
2023-04-27T09:30:18.808Z,102116.50
2023-04-27T09:32:53.641Z,102114.63
2023-04-27T09:35:27.916Z,102113.94
2023-04-27T09:37:55.560Z,102112.44
2023-04-27T09:40:27.871Z,102102.66
2023-04-27T09:42:56.730Z,102098.09
2023-04-27T09:45:26.255Z,102093.19
2023-04-27T09:47:52.849Z,102100.78
2023-04-27T09:50:19.440Z,102094.38
2023-04-27T09:52:47.062Z,102092.84
2023-04-27T09:55:20.991Z,102098.72
2023-04-27T09:58:15.009Z,102109.03
2023-04-27T10:01:00.239Z,102104.97
2023-04-27T10:03:51.261Z,102102.28
2023-04-27T10:06:48.964Z,102099.78
2023-04-27T10:09:17.277Z,102097.88
2023-04-27T10:11:44.928Z,102087.78
2023-04-27T10:14:18.468Z,102092.47
2023-04-27T10:16:55.615Z,102092.97
2023-04-27T10:19:23.652Z,102088.41
2023-04-27T10:21:53.410Z,102096.50
2023-04-27T10:24:19.817Z,102092.94
2023-04-27T10:26:48.053Z,102091.03
2023-04-27T10:29:16.494Z,102092.56
2023-04-27T10:31:48.235Z,102092.88
2023-04-27T10:34:20.688Z,102091.00
2023-04-27T10:36:49.888Z,102090.00
2023-04-27T10:39:25.622Z,102096.06
2023-04-27T10:41:59.542Z,102090.34
2023-04-27T10:44:28.588Z,102089.78
2023-04-27T10:46:57.073Z,102090.75
2023-04-27T10:49:23.776Z,102094.59
2023-04-27T10:51:51.433Z,102091.47
2023-04-27T10:54:18.713Z,102085.00
2023-04-27T10:56:45.580Z,102076.66
2023-04-27T10:59:12.550Z,102078.16
2023-04-27T11:01:40.216Z,102070.81
2023-04-27T11:04:06.869Z,102070.88
2023-04-27T11:06:43.010Z,102079.19
2023-04-27T11:09:10.882Z,102062.31
2023-04-27T11:11:37.287Z,102056.34
2023-04-27T11:14:03.838Z,102052.94
2023-04-27T11:16:33.392Z,102053.34
2023-04-27T11:19:05.331Z,102048.38
2023-04-27T11:21:32.325Z,102048.19
2023-04-27T11:24:08.836Z,102042.00
2023-04-27T11:26:35.402Z,102048.19
2023-04-27T11:29:10.145Z,102049.16
2023-04-27T11:31:40.843Z,102048.41
2023-04-27T11:34:08.211Z,102043.84
2023-04-27T11:36:34.712Z,102043.56
2023-04-27T11:39:01.259Z,102040.50
2023-04-27T11:41:37.232Z,102034.63
2023-04-27T11:44:07.731Z,102036.59
2023-04-27T11:46:36.576Z,102040.91
2023-04-27T11:49:04.668Z,102025.38
2023-04-27T11:51:35.957Z,102024.84
2023-04-27T11:54:06.807Z,102026.22
2023-04-27T11:56:38.554Z,102021.94
2023-04-27T11:59:05.850Z,102030.34
2023-04-27T12:01:38.074Z,102032.47
2023-04-27T12:04:05.213Z,102031.84
2023-04-27T12:06:33.763Z,102033.97
2023-04-27T12:09:00.858Z,102032.94
2023-04-27T12:11:30.436Z,102029.75
2023-04-27T12:13:57.546Z,102034.00
2023-04-27T12:16:24.186Z,102023.75
2023-04-27T12:18:50.709Z,102023.19
2023-04-27T12:21:17.328Z,102024.81
2023-04-27T12:23:44.025Z,102014.03
2023-04-27T12:26:11.920Z,102003.91
2023-04-27T12:28:39.518Z,102002.44
2023-04-27T12:31:06.114Z,102010.56
2023-04-27T12:33:32.675Z,101997.53
2023-04-27T12:35:59.160Z,101997.72
2023-04-27T12:38:25.609Z,102001.34
2023-04-27T12:40:52.077Z,102007.78
2023-04-27T12:43:18.497Z,102006.56
2023-04-27T12:45:44.920Z,101999.81
2023-04-27T12:48:11.804Z,101999.06
2023-04-27T12:50:38.378Z,101996.06
2023-04-27T12:53:04.761Z,101990.41
2023-04-27T12:55:34.437Z,102004.94
2023-04-27T12:58:03.322Z,101998.31
2023-04-27T13:00:30.116Z,101993.28
2023-04-27T13:02:57.232Z,101988.03
2023-04-27T13:05:23.885Z,101988.72
2023-04-27T13:07:50.351Z,101996.19
2023-04-27T13:10:16.800Z,101982.16
2023-04-27T13:12:43.345Z,101975.59
2023-04-27T13:15:10.297Z,101976.16
2023-04-27T13:17:36.951Z,101980.81
2023-04-27T13:20:04.099Z,101989.97
2023-04-27T13:22:30.620Z,101985.59
2023-04-27T13:24:57.144Z,101981.97
2023-04-27T13:27:25.247Z,101985.03
2023-04-27T13:29:51.707Z,101985.59
2023-04-27T13:32:18.648Z,101978.31
2023-04-27T13:34:45.417Z,101970.91
2023-04-27T13:37:11.894Z,101973.00
2023-04-27T13:39:38.338Z,101964.88
2023-04-27T13:42:04.952Z,101969.56
2023-04-27T13:44:31.846Z,101960.19
2023-04-27T13:46:58.571Z,101966.06
2023-04-27T13:49:25.926Z,101960.28
2023-04-27T13:51:52.514Z,101958.88
2023-04-27T13:54:20.343Z,101958.69
2023-04-27T13:56:46.811Z,101960.88
2023-04-27T13:59:13.592Z,101952.75
2023-04-27T14:01:40.268Z,101948.06
2023-04-27T14:04:07.415Z,101940.53
2023-04-27T14:06:34.191Z,101943.53
2023-04-27T14:09:00.805Z,101946.16
2023-04-27T14:11:27.433Z,101939.47
2023-04-27T14:13:53.882Z,101927.31
2023-04-27T14:16:20.870Z,101934.41
2023-04-27T14:18:47.322Z,101930.88
2023-04-27T14:21:13.796Z,101928.75
2023-04-27T14:23:40.222Z,101926.94
2023-04-27T14:26:06.603Z,101919.88
2023-04-27T14:28:33.246Z,101919.38
2023-04-27T14:30:59.656Z,101917.69
2023-04-27T14:33:26.026Z,101913.41
2023-04-27T14:35:52.527Z,101905.56
2023-04-27T14:38:18.971Z,101904.00
2023-04-27T14:40:45.775Z,101898.88
2023-04-27T14:43:12.202Z,101913.16
2023-04-27T14:45:48.062Z,101904.31
2023-04-27T14:48:17.958Z,101900.59
2023-04-27T14:50:44.505Z,101903.38
2023-04-27T14:53:10.919Z,101891.34
2023-04-27T14:55:37.345Z,101895.63
2023-04-27T14:58:03.807Z,101897.13
2023-04-27T15:00:30.278Z,101896.47
2023-04-27T15:02:58.091Z,101894.13
2023-04-27T15:05:25.071Z,101894.25
2023-04-27T15:07:51.548Z,101885.56
2023-04-27T15:10:18.082Z,101881.25
2023-04-27T15:12:44.813Z,101871.00
2023-04-27T15:15:12.872Z,101870.03
2023-04-27T15:17:39.582Z,101870.63
2023-04-27T15:20:06.851Z,101870.28
2023-04-27T15:22:33.414Z,101872.56
2023-04-27T15:24:59.935Z,101874.06
2023-04-27T15:27:26.369Z,101878.59
2023-04-27T15:29:58.055Z,101866.16
2023-04-27T15:32:29.714Z,101873.59
2023-04-27T15:34:57.986Z,101866.13
2023-04-27T15:37:28.462Z,101851.69
2023-04-27T15:39:55.434Z,101857.56
2023-04-27T15:42:22.672Z,101844.88
2023-04-27T15:44:49.224Z,101842.28
2023-04-27T15:47:15.679Z,101841.06
2023-04-27T15:49:53.525Z,101842.28
2023-04-27T15:52:23.876Z,101835.38
2023-04-27T15:54:50.389Z,101839.19
2023-04-27T15:57:18.173Z,101843.38
2023-04-27T15:59:44.684Z,101840.88
2023-04-27T16:02:11.282Z,101848.16
2023-04-27T16:04:37.796Z,101835.91
2023-04-27T16:07:07.144Z,101824.00
2023-04-27T16:09:33.816Z,101819.63
2023-04-27T16:12:00.411Z,101815.16
2023-04-27T16:14:26.922Z,101806.78
2023-04-27T16:16:54.798Z,101810.47
2023-04-27T16:19:21.618Z,101802.38
2023-04-27T16:21:48.069Z,101797.31
2023-04-27T16:24:14.518Z,101795.25
2023-04-27T16:26:40.958Z,101780.34
2023-04-27T16:29:07.352Z,101774.50
2023-04-27T16:31:33.810Z,101777.31
2023-04-27T16:34:00.525Z,101776.47
2023-04-27T16:36:27.576Z,101778.25
2023-04-27T16:38:53.977Z,101770.31
2023-04-27T16:41:20.935Z,101772.56
2023-04-27T16:43:47.791Z,101770.84
2023-04-27T16:46:15.301Z,101765.56
2023-04-27T16:48:41.833Z,101769.28
2023-04-27T16:51:10.322Z,101769.75
2023-04-27T16:53:37.198Z,101754.97
2023-04-27T16:56:03.903Z,101765.06
2023-04-27T16:58:30.783Z,101758.34
2023-04-27T17:00:57.902Z,101762.00
2023-04-27T17:03:25.064Z,101755.31
2023-04-27T17:05:52.310Z,101767.25
2023-04-27T17:08:18.780Z,101759.22
2023-04-27T17:10:45.501Z,101764.25
2023-04-27T17:13:14.591Z,101758.19
2023-04-27T17:15:41.131Z,101759.50
2023-04-27T17:18:09.373Z,101757.16
2023-04-27T17:20:35.843Z,101752.72
2023-04-27T17:23:02.280Z,101760.38
2023-04-27T17:25:28.773Z,101753.81
2023-04-27T17:27:55.380Z,101747.94
2023-04-27T17:30:21.806Z,101748.41
2023-04-27T17:32:48.327Z,101747.50
2023-04-27T17:35:14.825Z,101751.13
2023-04-27T17:37:41.345Z,101743.19
2023-04-27T17:40:09.004Z,101742.09
2023-04-27T17:42:35.989Z,101740.50
2023-04-27T17:45:02.399Z,101739.56
2023-04-27T17:47:28.836Z,101743.09
2023-04-27T17:49:55.318Z,101748.53
2023-04-27T17:52:21.773Z,101742.56
2023-04-27T17:54:48.207Z,101739.41
2023-04-27T17:57:14.640Z,101739.19
2023-04-27T17:59:41.165Z,101745.75
2023-04-27T18:02:07.752Z,101740.88
2023-04-27T18:04:34.520Z,101731.09
2023-04-27T18:07:01.239Z,101729.97
2023-04-27T18:09:28.733Z,101718.31
2023-04-27T18:11:55.962Z,101716.34
2023-04-27T18:14:22.453Z,101717.50
2023-04-27T18:16:49.044Z,101718.31
2023-04-27T18:19:16.069Z,101710.88
2023-04-27T18:21:42.980Z,101704.81
2023-04-27T18:24:09.680Z,101702.56
2023-04-27T18:26:36.692Z,101714.06
2023-04-27T18:29:03.326Z,101713.66
2023-04-27T18:31:29.752Z,101712.66
2023-04-27T18:33:56.368Z,101707.88
2023-04-27T18:36:22.789Z,101718.31
2023-04-27T18:38:49.253Z,101722.44
2023-04-27T18:41:15.732Z,101714.50
2023-04-27T18:43:42.142Z,101715.25
2023-04-27T18:46:08.537Z,101717.69
2023-04-27T18:48:35.807Z,101715.00
2023-04-27T18:51:02.226Z,101712.28
2023-04-27T18:53:28.798Z,101725.22
2023-04-27T18:55:55.502Z,101719.66
2023-04-27T18:58:22.102Z,101712.19
2023-04-27T19:00:48.625Z,101711.16
2023-04-27T19:03:15.279Z,101700.34
2023-04-27T19:05:43.119Z,101701.00
2023-04-27T19:08:10.188Z,101706.59
2023-04-27T19:10:36.901Z,101706.97
2023-04-27T19:13:03.310Z,101716.28
2023-04-27T19:15:29.729Z,101713.78
2023-04-27T19:18:06.648Z,101714.06
2023-04-27T19:20:36.274Z,101721.97
2023-04-27T19:23:02.807Z,101712.19
2023-04-27T19:25:29.201Z,101714.78
2023-04-27T19:27:56.008Z,101721.78
2023-04-27T19:30:22.773Z,101713.69
2023-04-27T19:32:49.297Z,101712.66
2023-04-27T19:35:15.988Z,101710.41
2023-04-27T19:37:42.428Z,101699.81
2023-04-27T19:40:09.514Z,101710.88
2023-04-27T19:42:35.927Z,101706.53
2023-04-27T19:45:03.848Z,101717.78
2023-04-27T19:47:30.809Z,101713.22
2023-04-27T19:49:58.864Z,101713.38
2023-04-27T19:52:25.849Z,101717.31
2023-04-27T19:54:53.295Z,101713.78
2023-04-27T19:57:20.686Z,101708.00
2023-04-27T19:59:47.387Z,101703.25
2023-04-27T20:02:13.879Z,101701.75
2023-04-27T20:04:41.429Z,101693.28
2023-04-27T20:07:08.658Z,101697.22
2023-04-27T20:09:35.384Z,101680.81
2023-04-27T20:12:02.051Z,101683.69
2023-04-27T20:14:31.156Z,101687.81
2023-04-27T20:16:57.962Z,101682.19
2023-04-27T20:19:25.170Z,101683.53
2023-04-27T20:21:51.702Z,101680.06
2023-04-27T20:24:18.254Z,101671.94
2023-04-27T20:26:44.863Z,101665.91
2023-04-27T20:29:11.480Z,101674.56
2023-04-27T20:31:38.031Z,101665.44
2023-04-27T20:34:04.464Z,101660.69
2023-04-27T20:36:31.919Z,101655.47
2023-04-27T20:39:00.718Z,101652.78
2023-04-27T20:41:27.612Z,101650.19
2023-04-27T20:43:54.008Z,101632.13
2023-04-27T20:46:20.442Z,101640.22
2023-04-27T20:48:47.005Z,101639.75
2023-04-27T20:51:14.048Z,101634.16
2023-04-27T20:53:40.431Z,101624.59
2023-04-27T20:56:07.065Z,101627.19
2023-04-27T20:58:34.605Z,101624.00
2023-04-27T21:01:01.081Z,101618.81
2023-04-27T21:03:27.738Z,101619.06
2023-04-27T21:05:54.289Z,101623.34
2023-04-27T21:08:20.662Z,101616.94
2023-04-27T21:10:47.149Z,101614.31
2023-04-27T21:13:13.634Z,101613.22
2023-04-27T21:15:40.057Z,101617.94
2023-04-27T21:18:09.409Z,101612.94
2023-04-27T21:20:40.113Z,101612.94
2023-04-27T21:23:06.666Z,101606.78
2023-04-27T21:25:33.073Z,101602.06
2023-04-27T21:27:59.513Z,101589.97
2023-04-27T21:30:26.143Z,101595.91
2023-04-27T21:32:52.678Z,101591.72
2023-04-27T21:35:19.328Z,101580.34
2023-04-27T21:37:45.946Z,101570.59
2023-04-27T21:40:12.578Z,101567.78
2023-04-27T21:42:38.980Z,101567.84
2023-04-27T21:45:05.945Z,101566.44
2023-04-27T21:47:32.353Z,101561.50
2023-04-27T21:49:58.870Z,101560.94
2023-04-27T21:52:25.375Z,101557.09
2023-04-27T21:54:51.792Z,101544.84
2023-04-27T21:57:19.939Z,101543.81
2023-04-27T21:59:46.655Z,101545.31
2023-04-27T22:02:13.600Z,101547.00
2023-04-27T22:04:40.269Z,101544.19
2023-04-27T22:07:10.286Z,101544.25
2023-04-27T22:09:36.861Z,101534.78
2023-04-27T22:12:03.967Z,101523.28
2023-04-27T22:14:33.312Z,101513.69
2023-04-27T22:17:00.935Z,101513.22
2023-04-27T22:19:28.564Z,101517.00
2023-04-27T22:21:55.394Z,101515.81
2023-04-27T22:24:22.265Z,101513.97
2023-04-27T22:26:48.618Z,101503.63
2023-04-27T22:29:15.738Z,101502.03
2023-04-27T22:31:43.169Z,101506.19
2023-04-27T22:34:11.615Z,101505.66
2023-04-27T22:36:38.136Z,101502.44
2023-04-27T22:39:05.525Z,101504.44
2023-04-27T22:41:31.929Z,101493.66
2023-04-27T22:43:58.381Z,101490.84
2023-04-27T22:46:25.437Z,101489.34
2023-04-27T22:48:52.958Z,101505.03
2023-04-27T22:51:19.549Z,101496.72
2023-04-27T22:53:46.163Z,101493.97
2023-04-27T22:56:12.946Z,101488.84
2023-04-27T22:58:39.363Z,101502.81
2023-04-27T23:01:06.062Z,101491.31
2023-04-27T23:03:32.936Z,101487.31
2023-04-27T23:06:00.823Z,101483.94
2023-04-27T23:08:28.771Z,101487.38
2023-04-27T23:10:56.195Z,101480.47
2023-04-27T23:13:26.691Z,101482.22
2023-04-27T23:15:54.364Z,101476.34
2023-04-27T23:18:21.269Z,101473.22
2023-04-27T23:20:52.641Z,101467.97
2023-04-27T23:23:19.095Z,101457.88
2023-04-27T23:25:45.780Z,101454.88
2023-04-27T23:28:12.267Z,101451.25
2023-04-27T23:30:38.790Z,101452.91
2023-04-27T23:33:05.630Z,101441.78
2023-04-27T23:35:32.346Z,101448.38
2023-04-27T23:37:58.763Z,101431.13
2023-04-27T23:40:25.300Z,101425.19
2023-04-27T23:42:52.543Z,101421.19
2023-04-27T23:45:19.531Z,101420.88
2023-04-27T23:47:46.383Z,101417.72
2023-04-27T23:50:13.049Z,101409.84
2023-04-27T23:52:39.804Z,101415.84
2023-04-27T23:55:07.200Z,101412.25
2023-04-27T23:57:33.644Z,101413.78
